Latest Weather Observations for Archerfield

IDQ60801

Issued at 8:02 pm EST Thursday 5 March 2015 (issued every 30 minutes, with the page automatically refreshed every 10 minutes)

About weather observations | Map of weather stations | Latest weather observations for QLD | Other Formats
Station Details ID: 040211 Name: ARCHERFIELD AIRPORT Lat: -27.57 Lon: 153.01 Height: 12.5 m
Data from the previous 72 hours. | See also: Recent months at Archerfield
Date/Time
EST
Temp
°C
App
Temp
°C
Dew
Point
Rel
Hum
%
Delta-T
°C
Wind Press
QNH
hPa
Press
MSL
hPa
Rain
since 9 am
mm
Dir
 
Spd
km/h
Gust
km/h
Spd
kts
Gust
kts
05/08:00pm 26.4 30.1 23.3 83 2.1 NNE 9 13 5 7 1004.7 1004.6 0.0
05/07:30pm 27.1 30.6 23.6 81 2.4 NE 11 13 6 7 1004.4 1004.3 0.0
05/07:00pm 27.9 31.4 23.5 77 3.0 NNE 11 24 6 13 1004.1 1004.0 0.0
05/06:30pm 28.7 31.8 23.6 74 3.5 NE 13 19 7 10 1003.5 1003.4 0.0
05/06:00pm 29.6 31.4 23.5 69 4.2 NE 20 30 11 16 1003.1 1003.0 0.0
05/05:30pm 30.9 32.5 23.3 64 5.2 NNE 20 26 11 14 1002.9 1002.8 0.0
05/05:00pm 32.1 33.4 23.3 59 6.1 NNE 22 28 12 15 1002.5 1002.4 0.0
05/04:30pm 33.3 35.1 23.3 55 6.9 NNE 19 24 10 13 1002.3 1002.2 0.0
05/04:00pm 33.9 35.9 23.6 55 7.2 NNE 19 24 10 13 1002.1 1002.0 0.0
05/03:30pm 34.5 35.9 22.9 51 8.0 NNE 20 24 11 13 1002.1 1002.0 0.0
05/03:00pm 35.6 38.5 21.8 44 9.5 N 9 15 5 8 1002.4 1002.3 0.0
05/02:30pm 36.6 36.5 20.0 38 11.1 W 20 33 11 18 1002.7 1002.6 0.0
05/02:00pm 36.2 37.1 20.0 38 10.9 WNW 15 26 8 14 1003.4 1003.3 0.0
05/01:30pm 35.5 36.7 20.6 41 10.0 WNW 15 22 8 12 1004.1 1004.0 0.0
05/01:00pm 34.2 35.5 20.2 43 9.4 W 13 20 7 11 1004.8 1004.7 0.0
05/12:30pm 33.4 35.1 20.9 48 8.4 W 13 19 7 10 1005.4 1005.3 0.0
05/12:00pm 32.9 33.1 20.1 47 8.5 WSW 19 24 10 13 1006.0 1005.9 0.0
05/11:30am 32.7 33.6 20.9 49 7.9 W 17 26 9 14 1006.5 1006.4 0.0
05/11:00am 31.8 32.4 21.0 52 7.3 W 19 26 10 14 1007.0 1006.9 0.0
05/10:30am 31.1 32.4 21.6 57 6.4 W 17 22 9 12 1007.6 1007.5 0.0
05/10:00am 29.5 31.2 20.9 60 5.7 W 13 19 7 10 1008.0 1007.9 0.0
05/09:30am 29.0 31.3 22.0 66 4.7 WSW 13 17 7 9 1008.4 1008.3 0.0
05/09:00am 28.0 29.8 21.1 66 4.6 W 13 22 7 12 1008.6 1008.5 0.0
05/08:30am 26.7 28.3 20.8 70 3.9 W 13 19 7 10 1008.8 1008.7 0.0
05/08:00am 25.4 27.7 20.6 75 3.1 W 9 11 5 6 1009.0 1008.9 0.0
05/07:30am 24.5 27.2 20.2 77 2.8 SW 6 7 3 4 1009.1 1009.0 0.0
05/07:00am 23.5 26.6 19.4 78 2.6 W 2 6 1 3 1009.0 1008.9 0.0
05/06:30am 22.4 24.9 19.9 86 1.6 W 6 9 3 5 1008.9 1008.8 0.0
05/06:00am 21.6 25.0 19.3 87 1.5 CALM 0 0 0 0 1008.5 1008.4 0.0
05/05:30am 21.6 23.8 19.3 87 1.5 WNW 6 7 3 4 1008.3 1008.2 0.0
05/05:00am 21.5 23.7 19.2 87 1.5 WNW 6 7 3 4 1008.2 1008.1 0.0
05/04:30am 22.0 25.6 19.7 87 1.5 CALM 0 0 0 0 1008.3 1008.2 0.0
05/04:00am 21.9 24.1 19.3 85 1.7 NNW 6 7 3 4 1008.2 1008.1 0.0
05/03:30am 22.4 24.5 19.4 83 1.9 NNW 7 7 4 4 1008.4 1008.3 0.0
05/03:00am 22.9 24.9 19.9 83 1.9 NNW 9 13 5 7 1008.6 1008.5 0.0
05/02:30am 22.9 24.4 19.7 82 2.1 N 11 17 6 9 1008.7 1008.6 0.0
05/02:00am 23.5 23.9 19.8 80 2.4 NNW 17 22 9 12 1009.3 1009.2 0.0
05/01:30am 23.3 24.0 19.7 80 2.3 N 15 20 8 11 1009.7 1009.6 0.0
05/01:00am 23.5 23.4 19.6 79 2.5 N 19 24 10 13 1010.0 1009.9 0.0
05/12:30am 23.7 24.0 19.6 78 2.6 N 17 22 9 12 1010.4 1010.3 0.0
05/12:00am 24.2 24.2 19.7 76 2.9 N 19 24 10 13 1010.8 1010.7 0.0
 
Date/Time
EST
Temp
°C
App
Temp
°C
Dew
Point
Rel
Hum
%
Delta-T
°C
Wind Press
QNH
hPa
Press
MSL
hPa
Rain
since 9 am
mm
Dir
 
Spd
km/h
Gust
km/h
Spd
kts
Gust
kts
04/11:30pm 24.2 24.2 19.7 76 2.9 N 19 24 10 13 1011.1 1011.0 0.0
04/11:00pm 24.4 24.1 19.5 74 3.1 N 20 24 11 13 1011.3 1011.2 0.0
04/10:30pm 24.5 24.4 19.6 74 3.2 N 19 24 10 13 1011.7 1011.6 0.0
04/10:00pm 24.2 24.9 19.7 76 2.9 N 15 19 8 10 1011.8 1011.7 0.0
04/09:30pm 24.8 24.8 19.8 74 3.2 N 19 24 10 13 1012.0 1011.9 0.0
04/09:00pm 24.8 24.8 19.8 74 3.2 N 19 24 10 13 1012.0 1011.9 0.0
04/08:30pm 24.8 25.0 19.4 72 3.5 N 17 22 9 12 1012.1 1012.0 0.0
04/08:00pm 25.0 25.3 19.6 72 3.5 NNE 17 24 9 13 1011.9 1011.8 0.0
04/07:30pm 24.9 24.9 19.7 73 3.4 NNE 19 24 10 13 1011.6 1011.5 0.0
04/07:00pm 25.1 25.2 19.9 73 3.4 NNE 19 22 10 12 1011.3 1011.2 0.0
04/06:30pm 25.3 26.1 19.9 72 3.5 NNE 15 19 8 10 1011.0 1010.9 0.0
04/06:00pm 26.6 26.2 19.0 63 4.9 NNE 19 24 10 13 1010.8 1010.7 0.0
04/05:30pm 27.5 26.9 18.8 59 5.6 NE 20 24 11 13 1010.7 1010.6 0.0
04/05:00pm 28.4 28.1 19.1 57 6.0 NNE 19 24 10 13 1010.6 1010.5 0.0
04/04:30pm 29.1 28.6 19.1 54 6.5 NE 20 26 11 14 1010.5 1010.4 0.0
04/04:00pm 29.5 29.1 18.9 53 6.9 NNE 19 26 10 14 1010.5 1010.4 0.0
04/03:30pm 29.7 28.7 18.8 52 7.0 NE 22 28 12 15 1010.5 1010.4 0.0
04/03:00pm 30.0 30.7 18.8 51 7.3 N 13 22 7 12 1010.7 1010.6 0.0
04/02:30pm 30.1 29.9 18.5 49 7.5 NNE 17 22 9 12 1011.1 1011.0 0.0
04/02:00pm 30.5 30.5 18.9 50 7.5 N 17 24 9 13 1011.3 1011.2 0.0
04/01:30pm 30.6 32.0 18.7 49 7.7 NW 9 17 5 9 1011.9 1011.8 0.0
04/01:00pm 30.2 31.4 18.3 49 7.7 NNE 9 15 5 8 1012.3 1012.2 0.0
04/12:30pm 30.1 31.8 18.5 49 7.5 N 7 13 4 7 1012.7 1012.6 0.0
04/12:00pm 29.2 30.7 18.0 51 7.1 N 7 11 4 6 1013.2 1013.1 0.0
04/11:30am 28.9 31.1 19.5 57 6.1 W 7 13 4 7 1013.6 1013.5 0.0
04/11:00am 28.8 31.2 19.7 58 5.9 NE 6 11 3 6 1014.1 1014.0 0.0
04/10:30am 27.6 29.5 18.6 58 5.8 NW 6 11 3 6 1014.4 1014.3 0.0
04/10:00am 27.2 28.4 17.4 55 6.2 NNE 7 11 4 6 1014.5 1014.4 0.0
04/09:30am 27.1 29.3 18.4 59 5.5 NNW 4 9 2 5 1014.8 1014.7 0.0
04/09:00am 26.5 28.5 19.1 64 4.8 WSW 7 9 4 5 1014.8 1014.7 0.2
04/08:30am 25.6 28.3 19.5 69 3.9 WSW 4 9 2 5 1014.9 1014.8 0.2
04/08:00am 24.3 26.0 19.4 74 3.1 S 9 13 5 7 1014.8 1014.7 0.2
04/07:30am 23.1 25.3 19.5 80 2.3 SSW 7 11 4 6 1014.4 1014.3 0.2
04/07:00am 21.9 24.3 18.7 82 2.0 SSW 4 9 2 5 1014.1 1014.0 0.2
04/06:30am 20.9 24.0 18.7 87 1.4 CALM 0 2 0 1 1013.8 1013.7 0.2
04/06:00am 20.1 21.7 18.2 89 1.2 S 7 9 4 5 1013.6 1013.5 0.2
04/05:30am 20.4 23.0 18.5 89 1.2 S 2 7 1 4 1013.4 1013.3 0.2
04/05:00am 20.4 23.4 18.5 89 1.2 CALM 0 0 0 0 1013.3 1013.2 0.2
04/04:30am 20.8 23.0 19.1 90 1.1 SSE 6 7 3 4 1013.2 1013.1 0.2
04/04:00am 20.5 22.6 19.3 93 0.8 S 7 9 4 5 1012.8 1012.7 0.2
04/03:30am 20.4 23.7 19.1 92 0.8 CALM 0 0 0 0 1012.7 1012.6 0.2
04/03:00am 20.0 23.0 18.5 91 0.9 CALM 0 0 0 0 1013.1 1013.0 0.2
04/02:30am 19.9 22.7 17.9 88 1.2 CALM 0 0 0 0 1013.6 1013.5 0.2
04/02:00am 21.3 23.2 18.5 84 1.8 S 6 7 3 4 1013.7 1013.6 0.2
04/01:30am 21.6 23.4 18.4 82 2.0 S 6 7 3 4 1014.2 1014.1 0.2
04/01:00am 22.1 24.2 18.9 82 2.0 S 6 7 3 4 1014.6 1014.5 0.2
04/12:30am 22.4 25.9 19.6 84 1.8 CALM 0 0 0 0 1015.1 1015.0 0.2
04/12:00am 21.5 24.5 18.5 83 1.9 CALM 0 0 0 0 1015.4 1015.3 0.2
 
Date/Time
EST
Temp
°C
App
Temp
°C
Dew
Point
Rel
Hum
%
Delta-T
°C
Wind Press
QNH
hPa
Press
MSL
hPa
Rain
since 9 am
mm
Dir
 
Spd
km/h
Gust
km/h
Spd
kts
Gust
kts
03/11:30pm 21.8 24.4 18.4 81 2.1 ENE 2 6 1 3 1015.6 1015.5 0.2
03/11:00pm 22.3 24.0 18.5 79 2.4 NE 7 9 4 5 1015.7 1015.6 0.2
03/10:30pm 23.2 25.2 18.7 76 2.8 ENE 6 7 3 4 1015.7 1015.6 0.2
03/10:00pm 22.3 23.6 18.5 79 2.4 NE 9 11 5 6 1015.6 1015.5 0.2
03/09:30pm 23.0 25.0 18.7 77 2.7 NE 6 9 3 5 1015.6 1015.5 0.2
03/09:00pm 23.2 24.5 18.5 75 3.0 ENE 9 11 5 6 1015.4 1015.3 0.2
03/08:30pm 23.8 24.8 18.7 73 3.2 ENE 11 15 6 8 1015.2 1015.1 0.2
03/08:00pm 24.2 24.9 18.8 72 3.4 ENE 13 17 7 9 1015.0 1014.9 0.2
03/07:30pm 24.4 24.7 18.8 71 3.6 ENE 15 20 8 11 1014.6 1014.5 0.2
03/07:00pm 24.6 24.4 18.5 69 3.9 ENE 17 24 9 13 1014.2 1014.1 0.2
03/06:30pm 25.3 24.6 18.7 67 4.2 ENE 20 28 11 15 1014.0 1013.9 0.2
03/06:00pm 25.9 25.3 18.8 65 4.5 ENE 20 28 11 15 1013.5 1013.4 0.2
03/05:30pm 27.0 26.4 18.8 60 5.3 ENE 20 30 11 16 1013.2 1013.1 0.2
03/05:00pm 28.0 27.5 19.0 58 5.8 ENE 20 28 11 15 1013.1 1013.0 0.2
03/04:30pm 28.6 27.9 18.7 55 6.4 ENE 20 30 11 16 1012.6 1012.5 0.2
03/04:00pm 29.5 29.0 17.7 49 7.5 ESE 17 26 9 14 1012.6 1012.5 0.2
03/03:30pm 29.9 30.4 17.4 47 7.9 E 11 19 6 10 1012.5 1012.4 0.2
03/03:00pm 30.2 30.0 17.6 46 8.0 ESE 15 24 8 13 1012.5 1012.4 0.2
03/02:30pm 30.1 30.4 16.9 45 8.3 ENE 11 22 6 12 1012.8 1012.7 0.2
03/02:00pm 30.3 30.1 16.7 44 8.5 ENE 13 19 7 10 1013.0 1012.9 0.2
03/01:30pm 29.8 28.9 16.9 45 8.1 ESE 17 24 9 13 1013.6 1013.5 0.2
03/01:00pm 29.9 29.3 16.7 45 8.3 ESE 15 22 8 12 1014.0 1013.9 0.2
03/12:30pm 29.6 29.7 17.4 47 7.7 ENE 13 20 7 11 1014.4 1014.3 0.2
03/12:00pm 28.8 28.8 17.3 49 7.2 ESE 13 22 7 12 1014.7 1014.6 0.2
03/11:30am 28.9 28.2 16.5 47 7.7 ESE 15 22 8 12 1014.9 1014.8 0.2
03/11:00am 28.6 28.9 17.8 52 6.9 SE 13 19 7 10 1015.3 1015.2 0.2
03/10:30am 27.9 28.3 18.9 58 5.8 SSE 15 19 8 10 1015.9 1015.8 0.2
03/10:00am 28.3 29.2 19.2 57 5.9 SSE 13 17 7 9 1016.0 1015.9 0.2
03/09:30am 27.1 28.2 18.9 61 5.3 E 11 17 6 9 1016.0 1015.9 0.0
03/09:00am 26.9 27.8 19.3 63 4.9 ESE 13 20 7 11 1016.0 1015.9 7.0
03/08:30am 25.8 27.4 19.9 70 3.8 SSE 11 19 6 10 1015.9 1015.8 7.0
03/08:00am 24.5 26.3 19.6 74 3.1 S 9 13 5 7 1015.7 1015.6 7.0
03/07:30am 23.3 25.1 18.8 76 2.8 SSW 7 13 4 7 1015.3 1015.2 7.0
03/07:00am 22.4 24.5 19.4 83 1.9 SW 7 9 4 5 1015.3 1015.2 7.0
03/06:30am 20.9 24.3 19.4 91 1.0 CALM 0 0 0 0 1015.2 1015.1 7.0
03/06:00am 19.4 22.2 17.9 91 0.9 CALM 0 0 0 0 1014.9 1014.8 7.0
03/05:30am 20.1 23.0 18.2 89 1.2 CALM 0 9 0 5 1014.6 1014.5 7.0
03/05:00am 19.7 22.5 18.0 90 1.0 CALM 0 0 0 0 1014.3 1014.2 7.0
03/04:30am 20.7 22.1 18.6 88 1.3 S 9 11 5 6 1014.2 1014.1 7.0
03/04:00am 20.6 22.0 18.7 89 1.2 S 9 11 5 6 1014.0 1013.9 7.0
03/03:30am 20.9 22.0 18.8 88 1.3 S 11 13 6 7 1014.0 1013.9 7.0
03/03:00am 21.1 22.6 18.9 87 1.4 S 9 11 5 6 1013.7 1013.6 7.0
03/02:30am 21.0 22.8 18.8 87 1.4 SSW 7 9 4 5 1014.0 1013.9 7.0
03/02:00am 21.3 22.8 18.9 86 1.5 SSW 9 13 5 7 1014.2 1014.1 7.0
03/01:30am 21.7 24.9 18.9 84 1.8 CALM 0 0 0 0 1014.4 1014.3 7.0
03/01:00am 21.6 23.5 18.6 83 1.9 SSW 6 7 3 4 1014.7 1014.6 7.0
03/12:30am 22.2 24.0 18.8 81 2.1 SSW 7 9 4 5 1015.0 1014.9 7.0
03/12:00am 22.3 24.5 19.3 83 1.9 SW 6 7 3 4 1015.2 1015.1 7.0
 
Date/Time
EST
Temp
°C
App
Temp
°C
Dew
Point
Rel
Hum
%
Delta-T
°C
Wind Press
QNH
hPa
Press
MSL
hPa
Rain
since 9 am
mm
Dir
 
Spd
km/h
Gust
km/h
Spd
kts
Gust
kts
02/11:30pm 22.4 24.4 19.2 82 2.0 SSW 7 9 4 5 1015.5 1015.4 7.0
02/11:00pm 23.4 25.4 19.1 77 2.7 SSE 7 9 4 5 1015.5 1015.4 7.0
02/10:30pm 23.6 24.8 19.1 76 2.9 SE 11 15 6 8 1015.5 1015.4 7.0
02/10:00pm 24.1 25.0 19.2 74 3.1 SE 13 20 7 11 1015.5 1015.4 7.0
02/09:30pm 24.4 24.8 19.0 72 3.4 SSE 15 20 8 11 1015.4 1015.3 7.0
02/09:00pm 24.9 25.4 19.3 71 3.6 SE 15 20 8 11 1015.2 1015.1 7.0
02/08:30pm 25.1 26.0 19.2 70 3.8 SE 13 19 7 10 1015.1 1015.0 7.0

Other Formats:

Comma delimited format used in spreadsheet applications
http://www.bom.gov.au/fwo/IDQ60801/IDQ60801.94575.axf

JavaScript Object Notation format (JSON) in row-major order
http://www.bom.gov.au/fwo/IDQ60801/IDQ60801.94575.json